sensor_id;sensor_type;location;lat;lon;timestamp;P1;durP1;ratioP1;P2;durP2;ratioP2
50954;SDS011;36966;48.064;-0.792;2023-01-10T00:01:07;6.25;;;1.00;;
50954;SDS011;36966;48.064;-0.792;2023-01-10T00:03:26;7.45;;;1.65;;
50954;SDS011;36966;48.064;-0.792;2023-01-10T00:05:45;8.90;;;1.48;;
50954;SDS011;36966;48.064;-0.792;2023-01-10T00:08:05;6.50;;;1.42;;
50954;SDS011;36966;48.064;-0.792;2023-01-10T00:10:26;5.25;;;1.13;;
50954;SDS011;36966;48.064;-0.792;2023-01-10T00:12:46;6.82;;;1.50;;
50954;SDS011;36966;48.064;-0.792;2023-01-10T00:15:24;8.30;;;1.80;;
50954;SDS011;36966;48.064;-0.792;2023-01-10T00:17:43;9.38;;;1.55;;
50954;SDS011;36966;48.064;-0.792;2023-01-10T00:20:02;6.07;;;1.20;;
50954;SDS011;36966;48.064;-0.792;2023-01-10T00:22:22;5.97;;;0.95;;
50954;SDS011;36966;48.064;-0.792;2023-01-10T00:24:43;9.00;;;0.98;;
50954;SDS011;36966;48.064;-0.792;2023-01-10T00:27:02;8.48;;;1.00;;
50954;SDS011;36966;48.064;-0.792;2023-01-10T00:29:23;8.23;;;0.80;;
50954;SDS011;36966;48.064;-0.792;2023-01-10T00:31:46;9.85;;;1.05;;
50954;SDS011;36966;48.064;-0.792;2023-01-10T00:34:06;6.53;;;1.52;;
50954;SDS011;36966;48.064;-0.792;2023-01-10T00:36:25;10.07;;;1.30;;
50954;SDS011;36966;48.064;-0.792;2023-01-10T00:38:44;7.15;;;1.42;;
50954;SDS011;36966;48.064;-0.792;2023-01-10T00:41:03;7.18;;;1.50;;
50954;SDS011;36966;48.064;-0.792;2023-01-10T00:43:45;10.07;;;1.33;;
50954;SDS011;36966;48.064;-0.792;2023-01-10T00:46:17;8.35;;;1.17;;
50954;SDS011;36966;48.064;-0.792;2023-01-10T00:48:36;6.22;;;1.38;;
50954;SDS011;36966;48.064;-0.792;2023-01-10T00:50:56;6.75;;;1.52;;
50954;SDS011;36966;48.064;-0.792;2023-01-10T00:53:15;4.75;;;1.20;;
50954;SDS011;36966;48.064;-0.792;2023-01-10T00:55:35;8.05;;;1.25;;
50954;SDS011;36966;48.064;-0.792;2023-01-10T00:57:54;4.60;;;0.95;;
50954;SDS011;36966;48.064;-0.792;2023-01-10T01:00:13;3.78;;;1.20;;
50954;SDS011;36966;48.064;-0.792;2023-01-10T01:02:33;9.05;;;1.73;;
50954;SDS011;36966;48.064;-0.792;2023-01-10T01:04:52;4.50;;;0.85;;
50954;SDS011;36966;48.064;-0.792;2023-01-10T01:07:11;8.57;;;1.63;;
50954;SDS011;36966;48.064;-0.792;2023-01-10T01:09:31;12.75;;;1.40;;
50954;SDS011;36966;48.064;-0.792;2023-01-10T01:11:50;7.28;;;1.10;;
50954;SDS011;36966;48.064;-0.792;2023-01-10T01:14:09;11.82;;;2.53;;
50954;SDS011;36966;48.064;-0.792;2023-01-10T01:16:28;10.55;;;1.42;;
50954;SDS011;36966;48.064;-0.792;2023-01-10T01:18:48;7.32;;;1.02;;
50954;SDS011;36966;48.064;-0.792;2023-01-10T01:21:07;12.10;;;1.23;;
50954;SDS011;36966;48.064;-0.792;2023-01-10T01:23:26;6.20;;;1.02;;
50954;SDS011;36966;48.064;-0.792;2023-01-10T01:25:50;4.32;;;1.02;;
50954;SDS011;36966;48.064;-0.792;2023-01-10T01:30:31;8.63;;;1.13;;
50954;SDS011;36966;48.064;-0.792;2023-01-10T01:32:50;8.25;;;1.35;;
50954;SDS011;36966;48.064;-0.792;2023-01-10T01:35:09;6.57;;;1.30;;
50954;SDS011;36966;48.064;-0.792;2023-01-10T01:37:32;11.20;;;2.15;;
50954;SDS011;36966;48.064;-0.792;2023-01-10T01:39:51;12.75;;;1.15;;
50954;SDS011;36966;48.064;-0.792;2023-01-10T01:42:44;11.13;;;1.77;;
50954;SDS011;36966;48.064;-0.792;2023-01-10T01:53:10;7.57;;;1.38;;
50954;SDS011;36966;48.064;-0.792;2023-01-10T01:55:35;4.22;;;1.13;;
50954;SDS011;36966;48.064;-0.792;2023-01-10T01:57:56;12.07;;;2.03;;
50954;SDS011;36966;48.064;-0.792;2023-01-10T02:00:17;6.90;;;1.42;;
50954;SDS011;36966;48.064;-0.792;2023-01-10T02:02:38;5.25;;;1.63;;
50954;SDS011;36966;48.064;-0.792;2023-01-10T02:05:05;7.85;;;1.13;;
50954;SDS011;36966;48.064;-0.792;2023-01-10T02:07:33;6.18;;;1.02;;
50954;SDS011;36966;48.064;-0.792;2023-01-10T02:10:00;5.38;;;1.00;;
50954;SDS011;36966;48.064;-0.792;2023-01-10T02:12:24;9.25;;;0.95;;
50954;SDS011;36966;48.064;-0.792;2023-01-10T02:14:46;9.85;;;1.38;;
50954;SDS011;36966;48.064;-0.792;2023-01-10T02:17:08;9.38;;;1.98;;
50954;SDS011;36966;48.064;-0.792;2023-01-10T02:35:49;7.30;;;1.10;;
50954;SDS011;36966;48.064;-0.792;2023-01-10T02:39:15;9.07;;;1.15;;
50954;SDS011;36966;48.064;-0.792;2023-01-10T02:43:50;11.52;;;1.05;;
50954;SDS011;36966;48.064;-0.792;2023-01-10T02:46:18;7.30;;;1.02;;
50954;SDS011;36966;48.064;-0.792;2023-01-10T02:48:42;7.78;;;1.70;;
50954;SDS011;36966;48.064;-0.792;2023-01-10T02:51:02;8.43;;;1.80;;
50954;SDS011;36966;48.064;-0.792;2023-01-10T02:53:27;8.98;;;1.60;;
50954;SDS011;36966;48.064;-0.792;2023-01-10T02:56:06;6.18;;;1.10;;
50954;SDS011;36966;48.064;-0.792;2023-01-10T03:11:51;12.25;;;1.45;;
50954;SDS011;36966;48.064;-0.792;2023-01-10T03:14:27;3.83;;;0.93;;
50954;SDS011;36966;48.064;-0.792;2023-01-10T03:16:57;7.55;;;1.42;;
50954;SDS011;36966;48.064;-0.792;2023-01-10T03:19:23;3.93;;;0.90;;
50954;SDS011;36966;48.064;-0.792;2023-01-10T03:21:45;5.00;;;1.33;;
50954;SDS011;36966;48.064;-0.792;2023-01-10T03:24:11;9.38;;;1.65;;
50954;SDS011;36966;48.064;-0.792;2023-01-10T03:26:40;7.57;;;0.90;;
50954;SDS011;36966;48.064;-0.792;2023-01-10T03:29:23;8.77;;;1.05;;
50954;SDS011;36966;48.064;-0.792;2023-01-10T03:31:49;10.88;;;1.15;;
50954;SDS011;36966;48.064;-0.792;2023-01-10T03:34:12;7.07;;;1.10;;
50954;SDS011;36966;48.064;-0.792;2023-01-10T03:39:05;8.80;;;1.13;;
50954;SDS011;36966;48.064;-0.792;2023-01-10T03:42:08;12.68;;;1.55;;
50954;SDS011;36966;48.064;-0.792;2023-01-10T03:45:11;11.77;;;1.58;;
50954;SDS011;36966;48.064;-0.792;2023-01-10T03:47:38;8.25;;;1.20;;
50954;SDS011;36966;48.064;-0.792;2023-01-10T03:50:19;10.95;;;1.08;;
50954;SDS011;36966;48.064;-0.792;2023-01-10T03:52:40;13.50;;;1.55;;
50954;SDS011;36966;48.064;-0.792;2023-01-10T03:55:00;7.38;;;1.08;;
50954;SDS011;36966;48.064;-0.792;2023-01-10T03:57:21;9.10;;;1.63;;
50954;SDS011;36966;48.064;-0.792;2023-01-10T03:59:43;4.50;;;0.90;;
50954;SDS011;36966;48.064;-0.792;2023-01-10T04:02:02;7.82;;;1.48;;
50954;SDS011;36966;48.064;-0.792;2023-01-10T04:04:21;10.38;;;1.23;;
50954;SDS011;36966;48.064;-0.792;2023-01-10T04:06:41;14.27;;;1.65;;
50954;SDS011;36966;48.064;-0.792;2023-01-10T04:09:00;15.02;;;1.60;;
50954;SDS011;36966;48.064;-0.792;2023-01-10T04:11:19;10.32;;;2.35;;
50954;SDS011;36966;48.064;-0.792;2023-01-10T04:13:39;9.65;;;1.42;;
50954;SDS011;36966;48.064;-0.792;2023-01-10T04:16:00;11.75;;;1.00;;
50954;SDS011;36966;48.064;-0.792;2023-01-10T04:18:19;8.70;;;1.15;;
50954;SDS011;36966;48.064;-0.792;2023-01-10T04:20:38;10.68;;;1.48;;
50954;SDS011;36966;48.064;-0.792;2023-01-10T04:22:57;11.57;;;1.75;;
50954;SDS011;36966;48.064;-0.792;2023-01-10T04:25:16;11.18;;;1.60;;
50954;SDS011;36966;48.064;-0.792;2023-01-10T04:27:36;9.98;;;1.23;;
50954;SDS011;36966;48.064;-0.792;2023-01-10T04:29:55;11.73;;;2.00;;
50954;SDS011;36966;48.064;-0.792;2023-01-10T04:32:14;8.35;;;1.08;;
50954;SDS011;36966;48.064;-0.792;2023-01-10T04:34:33;7.95;;;1.10;;
50954;SDS011;36966;48.064;-0.792;2023-01-10T04:36:52;9.45;;;2.10;;
50954;SDS011;36966;48.064;-0.792;2023-01-10T04:39:11;11.45;;;1.45;;
50954;SDS011;36966;48.064;-0.792;2023-01-10T04:41:31;10.88;;;1.25;;
50954;SDS011;36966;48.064;-0.792;2023-01-10T04:43:50;13.18;;;2.45;;
50954;SDS011;36966;48.064;-0.792;2023-01-10T04:46:10;9.07;;;1.30;;
50954;SDS011;36966;48.064;-0.792;2023-01-10T04:48:29;14.20;;;2.75;;
50954;SDS011;36966;48.064;-0.792;2023-01-10T04:50:49;12.18;;;2.45;;
50954;SDS011;36966;48.064;-0.792;2023-01-10T04:53:08;6.53;;;1.58;;
50954;SDS011;36966;48.064;-0.792;2023-01-10T04:55:27;13.80;;;1.75;;
50954;SDS011;36966;48.064;-0.792;2023-01-10T04:57:46;11.05;;;1.50;;
50954;SDS011;36966;48.064;-0.792;2023-01-10T05:00:06;20.15;;;3.03;;
50954;SDS011;36966;48.064;-0.792;2023-01-10T05:02:27;11.05;;;2.22;;
50954;SDS011;36966;48.064;-0.792;2023-01-10T05:04:46;11.70;;;2.25;;
50954;SDS011;36966;48.064;-0.792;2023-01-10T05:07:05;13.07;;;1.33;;
50954;SDS011;36966;48.064;-0.792;2023-01-10T05:09:24;13.00;;;1.23;;
50954;SDS011;36966;48.064;-0.792;2023-01-10T05:11:43;16.42;;;1.90;;
50954;SDS011;36966;48.064;-0.792;2023-01-10T05:14:02;10.35;;;1.65;;
50954;SDS011;36966;48.064;-0.792;2023-01-10T05:16:21;6.75;;;1.90;;
50954;SDS011;36966;48.064;-0.792;2023-01-10T05:18:41;14.75;;;1.75;;
50954;SDS011;36966;48.064;-0.792;2023-01-10T05:21:01;8.05;;;1.33;;
50954;SDS011;36966;48.064;-0.792;2023-01-10T05:23:22;10.55;;;1.63;;
50954;SDS011;36966;48.064;-0.792;2023-01-10T05:25:41;8.85;;;1.33;;
50954;SDS011;36966;48.064;-0.792;2023-01-10T05:28:00;6.75;;;1.40;;
50954;SDS011;36966;48.064;-0.792;2023-01-10T05:30:19;8.70;;;1.65;;
50954;SDS011;36966;48.064;-0.792;2023-01-10T05:32:39;8.57;;;1.52;;
50954;SDS011;36966;48.064;-0.792;2023-01-10T05:34:58;10.30;;;1.20;;
50954;SDS011;36966;48.064;-0.792;2023-01-10T05:37:17;8.02;;;1.30;;
50954;SDS011;36966;48.064;-0.792;2023-01-10T05:39:37;14.27;;;1.20;;
50954;SDS011;36966;48.064;-0.792;2023-01-10T05:41:57;13.88;;;1.00;;
50954;SDS011;36966;48.064;-0.792;2023-01-10T05:44:16;8.48;;;1.45;;
50954;SDS011;36966;48.064;-0.792;2023-01-10T05:46:35;12.10;;;1.92;;
50954;SDS011;36966;48.064;-0.792;2023-01-10T05:48:54;9.57;;;1.23;;
50954;SDS011;36966;48.064;-0.792;2023-01-10T05:51:14;6.45;;;1.17;;
50954;SDS011;36966;48.064;-0.792;2023-01-10T05:53:33;11.40;;;1.20;;
50954;SDS011;36966;48.064;-0.792;2023-01-10T05:55:56;10.50;;;1.80;;
50954;SDS011;36966;48.064;-0.792;2023-01-10T05:58:16;11.57;;;1.65;;
50954;SDS011;36966;48.064;-0.792;2023-01-10T06:00:36;16.10;;;1.58;;
50954;SDS011;36966;48.064;-0.792;2023-01-10T06:02:57;9.57;;;1.35;;
50954;SDS011;36966;48.064;-0.792;2023-01-10T06:05:16;9.32;;;1.30;;
50954;SDS011;36966;48.064;-0.792;2023-01-10T06:07:35;15.85;;;1.15;;
50954;SDS011;36966;48.064;-0.792;2023-01-10T06:09:55;14.52;;;2.05;;
50954;SDS011;36966;48.064;-0.792;2023-01-10T06:12:14;8.95;;;1.17;;
50954;SDS011;36966;48.064;-0.792;2023-01-10T06:14:33;8.98;;;2.13;;
50954;SDS011;36966;48.064;-0.792;2023-01-10T06:16:52;7.43;;;1.50;;
50954;SDS011;36966;48.064;-0.792;2023-01-10T06:19:12;10.13;;;1.20;;
50954;SDS011;36966;48.064;-0.792;2023-01-10T06:21:31;7.60;;;1.00;;
50954;SDS011;36966;48.064;-0.792;2023-01-10T06:23:50;15.63;;;1.98;;
50954;SDS011;36966;48.064;-0.792;2023-01-10T06:26:10;8.13;;;1.20;;
50954;SDS011;36966;48.064;-0.792;2023-01-10T06:28:29;7.25;;;1.10;;
50954;SDS011;36966;48.064;-0.792;2023-01-10T06:30:49;9.30;;;1.20;;
50954;SDS011;36966;48.064;-0.792;2023-01-10T06:33:08;9.05;;;0.75;;
50954;SDS011;36966;48.064;-0.792;2023-01-10T06:35:28;9.35;;;1.27;;
50954;SDS011;36966;48.064;-0.792;2023-01-10T06:37:48;3.70;;;0.93;;
50954;SDS011;36966;48.064;-0.792;2023-01-10T06:40:07;6.93;;;1.60;;
50954;SDS011;36966;48.064;-0.792;2023-01-10T06:42:27;7.15;;;1.20;;
50954;SDS011;36966;48.064;-0.792;2023-01-10T06:44:46;5.97;;;1.30;;
50954;SDS011;36966;48.064;-0.792;2023-01-10T06:47:06;7.68;;;1.52;;
50954;SDS011;36966;48.064;-0.792;2023-01-10T06:49:25;6.35;;;0.90;;
50954;SDS011;36966;48.064;-0.792;2023-01-10T06:51:45;7.68;;;0.77;;
50954;SDS011;36966;48.064;-0.792;2023-01-10T06:54:05;3.28;;;0.63;;
50954;SDS011;36966;48.064;-0.792;2023-01-10T06:56:24;11.68;;;0.95;;
50954;SDS011;36966;48.064;-0.792;2023-01-10T06:58:43;4.25;;;1.10;;
50954;SDS011;36966;48.064;-0.792;2023-01-10T07:01:06;10.55;;;0.70;;
50954;SDS011;36966;48.064;-0.792;2023-01-10T07:03:32;7.85;;;1.30;;
50954;SDS011;36966;48.064;-0.792;2023-01-10T07:05:51;4.35;;;0.70;;
50954;SDS011;36966;48.064;-0.792;2023-01-10T07:08:10;5.28;;;0.77;;
50954;SDS011;36966;48.064;-0.792;2023-01-10T07:10:30;4.90;;;0.60;;
50954;SDS011;36966;48.064;-0.792;2023-01-10T07:12:50;4.13;;;0.98;;
50954;SDS011;36966;48.064;-0.792;2023-01-10T07:15:09;9.48;;;0.60;;
50954;SDS011;36966;48.064;-0.792;2023-01-10T07:17:29;8.02;;;0.80;;
50954;SDS011;36966;48.064;-0.792;2023-01-10T07:19:48;8.48;;;1.08;;
50954;SDS011;36966;48.064;-0.792;2023-01-10T07:22:07;7.18;;;1.50;;
50954;SDS011;36966;48.064;-0.792;2023-01-10T07:24:26;7.20;;;0.98;;
50954;SDS011;36966;48.064;-0.792;2023-01-10T07:26:45;4.45;;;0.60;;
50954;SDS011;36966;48.064;-0.792;2023-01-10T07:29:04;5.88;;;0.30;;
50954;SDS011;36966;48.064;-0.792;2023-01-10T07:31:24;4.45;;;0.75;;
50954;SDS011;36966;48.064;-0.792;2023-01-10T07:33:44;7.43;;;1.27;;
50954;SDS011;36966;48.064;-0.792;2023-01-10T07:36:03;6.32;;;1.23;;
50954;SDS011;36966;48.064;-0.792;2023-01-10T07:38:23;3.75;;;0.68;;
50954;SDS011;36966;48.064;-0.792;2023-01-10T07:40:42;4.32;;;0.43;;
50954;SDS011;36966;48.064;-0.792;2023-01-10T07:43:01;4.72;;;0.70;;
50954;SDS011;36966;48.064;-0.792;2023-01-10T07:45:20;4.78;;;0.40;;
50954;SDS011;36966;48.064;-0.792;2023-01-10T07:47:39;4.60;;;0.82;;
50954;SDS011;36966;48.064;-0.792;2023-01-10T07:49:58;6.10;;;0.70;;
50954;SDS011;36966;48.064;-0.792;2023-01-10T07:52:18;6.28;;;0.60;;
50954;SDS011;36966;48.064;-0.792;2023-01-10T07:54:37;4.13;;;0.70;;
50954;SDS011;36966;48.064;-0.792;2023-01-10T07:56:56;6.88;;;0.52;;
50954;SDS011;36966;48.064;-0.792;2023-01-10T07:59:15;3.22;;;0.63;;
50954;SDS011;36966;48.064;-0.792;2023-01-10T08:01:34;5.35;;;0.50;;
50954;SDS011;36966;48.064;-0.792;2023-01-10T08:03:54;4.35;;;0.45;;
50954;SDS011;36966;48.064;-0.792;2023-01-10T08:06:14;2.60;;;0.40;;
50954;SDS011;36966;48.064;-0.792;2023-01-10T08:08:34;4.47;;;1.13;;
50954;SDS011;36966;48.064;-0.792;2023-01-10T08:10:53;5.40;;;0.88;;
50954;SDS011;36966;48.064;-0.792;2023-01-10T08:13:13;2.15;;;0.30;;
50954;SDS011;36966;48.064;-0.792;2023-01-10T08:15:32;2.20;;;0.57;;
50954;SDS011;36966;48.064;-0.792;2023-01-10T08:17:51;6.13;;;1.10;;
50954;SDS011;36966;48.064;-0.792;2023-01-10T08:20:11;5.15;;;1.30;;
50954;SDS011;36966;48.064;-0.792;2023-01-10T08:22:30;5.63;;;0.30;;
50954;SDS011;36966;48.064;-0.792;2023-01-10T08:24:49;10.10;;;1.17;;
50954;SDS011;36966;48.064;-0.792;2023-01-10T08:27:09;4.07;;;1.17;;
50954;SDS011;36966;48.064;-0.792;2023-01-10T08:29:28;4.63;;;0.70;;
50954;SDS011;36966;48.064;-0.792;2023-01-10T08:31:48;3.83;;;0.77;;
50954;SDS011;36966;48.064;-0.792;2023-01-10T08:34:07;2.55;;;0.28;;
50954;SDS011;36966;48.064;-0.792;2023-01-10T08:36:26;5.00;;;0.50;;
50954;SDS011;36966;48.064;-0.792;2023-01-10T08:38:47;6.75;;;0.50;;
50954;SDS011;36966;48.064;-0.792;2023-01-10T08:41:08;2.45;;;0.30;;
50954;SDS011;36966;48.064;-0.792;2023-01-10T08:43:27;1.25;;;0.60;;
50954;SDS011;36966;48.064;-0.792;2023-01-10T08:45:47;1.50;;;0.28;;
50954;SDS011;36966;48.064;-0.792;2023-01-10T08:48:08;1.70;;;0.35;;
50954;SDS011;36966;48.064;-0.792;2023-01-10T08:50:28;1.92;;;0.30;;
50954;SDS011;36966;48.064;-0.792;2023-01-10T08:52:47;5.25;;;1.00;;
50954;SDS011;36966;48.064;-0.792;2023-01-10T08:55:07;2.08;;;0.65;;
50954;SDS011;36966;48.064;-0.792;2023-01-10T08:57:26;3.95;;;0.40;;
50954;SDS011;36966;48.064;-0.792;2023-01-10T08:59:46;0.38;;;0.10;;
50954;SDS011;36966;48.064;-0.792;2023-01-10T09:02:05;2.25;;;0.30;;
50954;SDS011;36966;48.064;-0.792;2023-01-10T09:04:26;2.25;;;0.43;;
50954;SDS011;36966;48.064;-0.792;2023-01-10T09:06:46;2.03;;;0.43;;
50954;SDS011;36966;48.064;-0.792;2023-01-10T09:09:05;2.08;;;0.40;;
50954;SDS011;36966;48.064;-0.792;2023-01-10T09:11:24;1.92;;;0.40;;
50954;SDS011;36966;48.064;-0.792;2023-01-10T09:13:43;5.40;;;0.50;;
50954;SDS011;36966;48.064;-0.792;2023-01-10T09:16:06;1.27;;;0.30;;
50954;SDS011;36966;48.064;-0.792;2023-01-10T09:18:26;1.15;;;0.30;;
50954;SDS011;36966;48.064;-0.792;2023-01-10T09:20:45;2.50;;;0.40;;
50954;SDS011;36966;48.064;-0.792;2023-01-10T09:23:12;2.67;;;0.50;;
50954;SDS011;36966;48.064;-0.792;2023-01-10T09:25:36;2.50;;;0.65;;
50954;SDS011;36966;48.064;-0.792;2023-01-10T09:27:59;1.80;;;0.40;;
50954;SDS011;36966;48.064;-0.792;2023-01-10T09:30:20;1.70;;;0.50;;
50954;SDS011;36966;48.064;-0.792;2023-01-10T09:32:39;1.85;;;0.30;;
50954;SDS011;36966;48.064;-0.792;2023-01-10T09:34:58;2.55;;;1.30;;
50954;SDS011;36966;48.064;-0.792;2023-01-10T09:37:17;0.82;;;0.28;;
50954;SDS011;36966;48.064;-0.792;2023-01-10T09:39:36;1.10;;;0.32;;
50954;SDS011;36966;48.064;-0.792;2023-01-10T09:47:16;1.77;;;0.40;;
50954;SDS011;36966;48.064;-0.792;2023-01-10T09:52:23;1.75;;;0.30;;
50954;SDS011;36966;48.064;-0.792;2023-01-10T09:54:47;0.63;;;0.20;;
50954;SDS011;36966;48.064;-0.792;2023-01-10T09:57:12;1.45;;;0.30;;
50954;SDS011;36966;48.064;-0.792;2023-01-10T09:59:38;1.15;;;0.30;;
50954;SDS011;36966;48.064;-0.792;2023-01-10T10:01:59;0.40;;;0.22;;
50954;SDS011;36966;48.064;-0.792;2023-01-10T10:06:53;1.92;;;0.40;;
50954;SDS011;36966;48.064;-0.792;2023-01-10T10:09:12;1.38;;;0.20;;
50954;SDS011;36966;48.064;-0.792;2023-01-10T10:14:20;0.75;;;0.30;;
50954;SDS011;36966;48.064;-0.792;2023-01-10T10:24:40;2.10;;;0.20;;
50954;SDS011;36966;48.064;-0.792;2023-01-10T10:27:22;0.25;;;0.10;;
50954;SDS011;36966;48.064;-0.792;2023-01-10T10:32:40;1.33;;;0.30;;
50954;SDS011;36966;48.064;-0.792;2023-01-10T10:35:13;1.48;;;0.20;;
50954;SDS011;36966;48.064;-0.792;2023-01-10T10:37:44;0.28;;;0.10;;
50954;SDS011;36966;48.064;-0.792;2023-01-10T10:40:15;2.55;;;0.20;;
50954;SDS011;36966;48.064;-0.792;2023-01-10T10:42:38;0.47;;;0.20;;
50954;SDS011;36966;48.064;-0.792;2023-01-10T10:45:45;1.85;;;0.45;;
50954;SDS011;36966;48.064;-0.792;2023-01-10T10:47:49;0.90;;;0.25;;
50954;SDS011;36966;48.064;-0.792;2023-01-10T10:52:36;4.15;;;0.40;;
50954;SDS011;36966;48.064;-0.792;2023-01-10T10:54:55;1.45;;;0.38;;
50954;SDS011;36966;48.064;-0.792;2023-01-10T10:57:16;1.25;;;0.63;;
50954;SDS011;36966;48.064;-0.792;2023-01-10T10:59:36;3.25;;;0.40;;
50954;SDS011;36966;48.064;-0.792;2023-01-10T11:01:55;2.22;;;0.45;;
50954;SDS011;36966;48.064;-0.792;2023-01-10T11:04:16;0.70;;;0.40;;
50954;SDS011;36966;48.064;-0.792;2023-01-10T11:06:41;2.80;;;0.40;;
50954;SDS011;36966;48.064;-0.792;2023-01-10T11:09:07;0.38;;;0.30;;
50954;SDS011;36966;48.064;-0.792;2023-01-10T11:11:36;2.70;;;0.50;;
50954;SDS011;36966;48.064;-0.792;2023-01-10T11:14:03;1.48;;;0.40;;
50954;SDS011;36966;48.064;-0.792;2023-01-10T11:16:25;1.42;;;0.30;;
50954;SDS011;36966;48.064;-0.792;2023-01-10T11:18:46;1.23;;;0.40;;
50954;SDS011;36966;48.064;-0.792;2023-01-10T11:21:37;2.90;;;0.68;;
50954;SDS011;36966;48.064;-0.792;2023-01-10T11:23:58;3.00;;;0.50;;
50954;SDS011;36966;48.064;-0.792;2023-01-10T11:28:47;2.63;;;0.40;;
50954;SDS011;36966;48.064;-0.792;2023-01-10T11:31:08;4.38;;;0.70;;
50954;SDS011;36966;48.064;-0.792;2023-01-10T11:33:33;4.82;;;0.40;;
50954;SDS011;36966;48.064;-0.792;2023-01-10T11:36:06;1.73;;;0.32;;
50954;SDS011;36966;48.064;-0.792;2023-01-10T11:38:28;1.52;;;0.40;;
50954;SDS011;36966;48.064;-0.792;2023-01-10T11:40:52;1.40;;;0.40;;
50954;SDS011;36966;48.064;-0.792;2023-01-10T11:43:47;2.08;;;0.68;;
50954;SDS011;36966;48.064;-0.792;2023-01-10T11:48:38;0.60;;;0.40;;
50954;SDS011;36966;48.064;-0.792;2023-01-10T11:51:12;3.97;;;0.60;;
50954;SDS011;36966;48.064;-0.792;2023-01-10T11:53:45;2.28;;;0.40;;
50954;SDS011;36966;48.064;-0.792;2023-01-10T11:56:05;2.33;;;0.47;;
50954;SDS011;36966;48.064;-0.792;2023-01-10T11:58:30;4.18;;;0.70;;
50954;SDS011;36966;48.064;-0.792;2023-01-10T12:00:52;3.03;;;1.05;;
50954;SDS011;36966;48.064;-0.792;2023-01-10T12:06:05;2.30;;;0.55;;
50954;SDS011;36966;48.064;-0.792;2023-01-10T12:08:33;1.85;;;0.55;;
50954;SDS011;36966;48.064;-0.792;2023-01-10T12:10:56;5.53;;;0.93;;
50954;SDS011;36966;48.064;-0.792;2023-01-10T12:13:16;2.78;;;0.40;;
50954;SDS011;36966;48.064;-0.792;2023-01-10T12:15:35;3.95;;;0.93;;
50954;SDS011;36966;48.064;-0.792;2023-01-10T12:17:56;3.55;;;0.68;;
50954;SDS011;36966;48.064;-0.792;2023-01-10T12:20:17;5.93;;;0.77;;
50954;SDS011;36966;48.064;-0.792;2023-01-10T12:22:40;5.80;;;0.60;;
50954;SDS011;36966;48.064;-0.792;2023-01-10T12:25:09;5.57;;;0.90;;
50954;SDS011;36966;48.064;-0.792;2023-01-10T12:27:42;9.68;;;0.68;;
50954;SDS011;36966;48.064;-0.792;2023-01-10T12:30:05;6.07;;;1.00;;
50954;SDS011;36966;48.064;-0.792;2023-01-10T12:32:34;8.25;;;0.80;;
50954;SDS011;36966;48.064;-0.792;2023-01-10T12:35:03;7.38;;;0.88;;
50954;SDS011;36966;48.064;-0.792;2023-01-10T12:40:29;6.78;;;0.80;;
50954;SDS011;36966;48.064;-0.792;2023-01-10T12:43:24;6.25;;;0.55;;
50954;SDS011;36966;48.064;-0.792;2023-01-10T12:46:08;14.02;;;1.17;;
50954;SDS011;36966;48.064;-0.792;2023-01-10T12:48:48;5.20;;;1.05;;
50954;SDS011;36966;48.064;-0.792;2023-01-10T12:51:13;5.45;;;0.52;;
50954;SDS011;36966;48.064;-0.792;2023-01-10T12:53:38;12.10;;;1.60;;
50954;SDS011;36966;48.064;-0.792;2023-01-10T12:55:59;13.80;;;1.00;;
50954;SDS011;36966;48.064;-0.792;2023-01-10T12:58:42;7.05;;;1.20;;
50954;SDS011;36966;48.064;-0.792;2023-01-10T13:01:07;11.00;;;1.20;;
50954;SDS011;36966;48.064;-0.792;2023-01-10T13:03:32;11.13;;;1.75;;
50954;SDS011;36966;48.064;-0.792;2023-01-10T13:05:53;8.70;;;1.25;;
50954;SDS011;36966;48.064;-0.792;2023-01-10T13:08:16;12.52;;;0.98;;
50954;SDS011;36966;48.064;-0.792;2023-01-10T13:10:40;11.93;;;1.30;;
50954;SDS011;36966;48.064;-0.792;2023-01-10T13:16:16;8.35;;;1.58;;
50954;SDS011;36966;48.064;-0.792;2023-01-10T13:18:32;18.35;;;2.28;;
50954;SDS011;36966;48.064;-0.792;2023-01-10T13:23:33;14.25;;;1.48;;
50954;SDS011;36966;48.064;-0.792;2023-01-10T13:26:07;7.15;;;0.93;;
50954;SDS011;36966;48.064;-0.792;2023-01-10T13:28:28;12.98;;;1.52;;
50954;SDS011;36966;48.064;-0.792;2023-01-10T13:30:52;12.90;;;1.20;;
50954;SDS011;36966;48.064;-0.792;2023-01-10T13:35:50;9.45;;;0.90;;
50954;SDS011;36966;48.064;-0.792;2023-01-10T13:38:19;13.40;;;2.08;;
50954;SDS011;36966;48.064;-0.792;2023-01-10T13:40:44;10.25;;;1.13;;
50954;SDS011;36966;48.064;-0.792;2023-01-10T13:48:35;19.05;;;1.60;;
50954;SDS011;36966;48.064;-0.792;2023-01-10T13:51:04;13.15;;;1.27;;
50954;SDS011;36966;48.064;-0.792;2023-01-10T13:55:56;14.43;;;1.40;;
50954;SDS011;36966;48.064;-0.792;2023-01-10T14:00:40;17.75;;;1.55;;
50954;SDS011;36966;48.064;-0.792;2023-01-10T14:06:08;10.82;;;1.27;;
50954;SDS011;36966;48.064;-0.792;2023-01-10T14:08:37;17.17;;;1.13;;
50954;SDS011;36966;48.064;-0.792;2023-01-10T14:11:05;20.95;;;2.67;;
50954;SDS011;36966;48.064;-0.792;2023-01-10T14:13:26;20.75;;;2.20;;
50954;SDS011;36966;48.064;-0.792;2023-01-10T14:15:45;18.85;;;1.70;;
50954;SDS011;36966;48.064;-0.792;2023-01-10T14:18:07;13.98;;;1.88;;
50954;SDS011;36966;48.064;-0.792;2023-01-10T14:20:37;14.52;;;1.95;;
50954;SDS011;36966;48.064;-0.792;2023-01-10T14:23:05;16.65;;;1.45;;
50954;SDS011;36966;48.064;-0.792;2023-01-10T14:25:35;9.07;;;1.30;;
50954;SDS011;36966;48.064;-0.792;2023-01-10T14:27:55;19.05;;;1.70;;
50954;SDS011;36966;48.064;-0.792;2023-01-10T14:30:18;9.02;;;1.27;;
50954;SDS011;36966;48.064;-0.792;2023-01-10T14:32:40;17.67;;;1.85;;
50954;SDS011;36966;48.064;-0.792;2023-01-10T14:35:02;11.90;;;1.58;;
50954;SDS011;36966;48.064;-0.792;2023-01-10T14:37:31;11.20;;;1.50;;
50954;SDS011;36966;48.064;-0.792;2023-01-10T14:39:55;18.70;;;1.85;;
50954;SDS011;36966;48.064;-0.792;2023-01-10T14:42:15;21.92;;;2.13;;
50954;SDS011;36966;48.064;-0.792;2023-01-10T14:44:37;12.52;;;1.52;;
50954;SDS011;36966;48.064;-0.792;2023-01-10T14:47:03;11.13;;;2.75;;
50954;SDS011;36966;48.064;-0.792;2023-01-10T14:49:27;18.25;;;1.80;;
50954;SDS011;36966;48.064;-0.792;2023-01-10T14:51:55;16.08;;;1.80;;
50954;SDS011;36966;48.064;-0.792;2023-01-10T14:54:36;16.77;;;1.83;;
50954;SDS011;36966;48.064;-0.792;2023-01-10T14:56:56;12.02;;;1.80;;
50954;SDS011;36966;48.064;-0.792;2023-01-10T15:01:46;15.63;;;1.80;;
50954;SDS011;36966;48.064;-0.792;2023-01-10T15:04:17;17.55;;;1.45;;
50954;SDS011;36966;48.064;-0.792;2023-01-10T15:07:14;13.65;;;1.75;;
50954;SDS011;36966;48.064;-0.792;2023-01-10T15:09:30;13.48;;;1.23;;
50954;SDS011;36966;48.064;-0.792;2023-01-10T15:11:50;17.15;;;1.80;;
50954;SDS011;36966;48.064;-0.792;2023-01-10T15:14:10;10.55;;;2.22;;
50954;SDS011;36966;48.064;-0.792;2023-01-10T15:16:35;14.40;;;1.23;;
50954;SDS011;36966;48.064;-0.792;2023-01-10T15:18:56;16.85;;;1.23;;
50954;SDS011;36966;48.064;-0.792;2023-01-10T15:21:16;14.05;;;1.40;;
50954;SDS011;36966;48.064;-0.792;2023-01-10T15:23:40;15.82;;;2.72;;
50954;SDS011;36966;48.064;-0.792;2023-01-10T15:26:02;10.68;;;1.52;;
50954;SDS011;36966;48.064;-0.792;2023-01-10T15:28:28;13.07;;;1.33;;
50954;SDS011;36966;48.064;-0.792;2023-01-10T15:30:49;14.73;;;1.95;;
50954;SDS011;36966;48.064;-0.792;2023-01-10T15:33:11;16.50;;;1.20;;
50954;SDS011;36966;48.064;-0.792;2023-01-10T15:35:33;15.45;;;2.38;;
50954;SDS011;36966;48.064;-0.792;2023-01-10T15:37:53;16.65;;;2.15;;
50954;SDS011;36966;48.064;-0.792;2023-01-10T15:40:20;17.83;;;1.30;;
50954;SDS011;36966;48.064;-0.792;2023-01-10T15:42:41;12.07;;;1.35;;
50954;SDS011;36966;48.064;-0.792;2023-01-10T15:47:49;9.68;;;1.30;;
50954;SDS011;36966;48.064;-0.792;2023-01-10T15:50:53;19.23;;;3.78;;
50954;SDS011;36966;48.064;-0.792;2023-01-10T15:52:58;14.38;;;2.10;;
50954;SDS011;36966;48.064;-0.792;2023-01-10T15:55:20;8.95;;;1.33;;